This is the latest recevied weather packets stored in our database for station/object KC0RPY. If no packets are shown the sender has not sent any weather packets the latest 1 day(s).
| Time | Temp. | Humidity | Pressure | Rain* | Wind** | Luminosity | Snow |
|---|---|---|---|---|---|---|---|
| 1777983026 | 9.44° C | 83% | 1010.4 hPa | 0 mm | 0.45 m/s, 101° | 28 W/m² | - |
| 1777982722 | 9.44° C | 80% | 1011.5 hPa | 0 mm | 0.45 m/s, 120° | 6 W/m² | - |
| 1777982417 | 10° C | 79% | 1011.1 hPa | 0 mm | 0 m/s | 3 W/m² | - |
| 1777982113 | 10° C | 78% | 1010.4 hPa | 0 mm | 0.89 m/s, 102° | 1 W/m² | - |
| 1777981811 | 10° C | 79% | 1010 hPa | 0 mm | 0.89 m/s, 90° | 1 W/m² | - |
| 1777981508 | 10° C | 80% | 1009.7 hPa | 0 mm | 0.89 m/s, 102° | 0 W/m² | - |
| 1777981204 | 9.44° C | 82% | 1009.7 hPa | 0 mm | 0 m/s | 2 W/m² | - |
| 1777980901 | 9.44° C | 85% | 1010 hPa | 0 mm | 0 m/s | 0 W/m² | - |
| 1777980596 | 9.44° C | 85% | 1010.4 hPa | 0 mm | 0 m/s | 0 W/m² | - |
| 1777980293 | 9.44° C | 84% | 1010 hPa | 0 mm | 0 m/s | 1 W/m² | - |
| 1777979990 | 9.44° C | 85% | 1009.7 hPa | 0 mm | 0 m/s | 0 W/m² | - |
| 1777979684 | 9.44° C | 85% | 1009.7 hPa | 0 mm | 0 m/s | 0 W/m² | - |
| 1777979381 | 9.44° C | 86% | 1010 hPa | 0 mm | 0.45 m/s, 102° | 0 W/m² | - |
| 1777979078 | 9.44° C | 86% | 1010 hPa | 0 mm | 0.45 m/s, 110° | 0 W/m² | - |
| 1777978774 | 9.44° C | 85% | 1010 hPa | 0 mm | 0.45 m/s, 102° | 0 W/m² | - |
| 1777978471 | 9.44° C | 85% | 1010 hPa | 0 mm | 0.45 m/s, 85° | 0 W/m² | - |
| 1777978167 | 9.44° C | 86% | 1009.7 hPa | 0 mm | 0.45 m/s, 77° | 0 W/m² | - |
| 1777977865 | 8.89° C | 87% | 1009.7 hPa | 0 mm | 0.89 m/s, 78° | 0 W/m² | - |
| 1777977561 | 8.89° C | 87% | 1009.4 hPa | 0 mm | 0.89 m/s, 75° | 0 W/m² | - |
| 1777977259 | 8.89° C | 86% | 1009 hPa | 0 mm | 1.34 m/s, 70° | 0 W/m² | - |
| 1777976955 | 9.44° C | 85% | 1009.4 hPa | 0 mm | 0.45 m/s, 78° | 0 W/m² | - |
| 1777976653 | 8.89° C | 86% | 1009.4 hPa | 0 mm | 0.45 m/s, 79° | 0 W/m² | - |
| 1777976349 | 8.89° C | 86% | 1009.7 hPa | 0 mm | 0.89 m/s, 69° | 0 W/m² | - |
| 1777976043 | 8.89° C | 86% | 1010 hPa | 0 mm | 0 m/s | 0 W/m² | - |
| 1777975739 | 8.89° C | 86% | 1009.7 hPa | 0 mm | 0 m/s | 0 W/m² | - |
* Rain latest hour (hover to see other rain measurements)
** Current wind speed in m/s (hover to see current wind gust speed)